Terminal Aerodrome Forecast
Issued by NWS Wilmington, OH

Home | Current Version | Previous Version | Text Only | Print | Product List | Glossary On
Versions: 1 2 3 4 5 6 7 8 9 10 11 12 13 14 15 16 17 18 19 20 21 22 23 24
000
FTUS41 KILN 041700
TAFILN
TAF
KILN 041720Z 0418/0518 35006KT P6SM SCT050
     FM050000 VRB03KT P6SM FEW040
     FM050300 00000KT 4SM BR SKC
     FM051300 11004KT P6SM SCT050=

USA.gov is the U.S. government's official web portal to all federal, state and local government web resources and services.